Adaline — TCSP7 — position and weather

sailwx.info

Track history (hours):
 
Tides and Currents Weather Stations Pressure Air Temp Water Temp Dewpoint Dewpoint Depression Visibility Wind Speed Wind Dir Waves Ship Positions

Adaline

Last reported at 2018-Feb-22 02:58 UTC. Time now 2018-Feb-22 03:11 UTC.
Position N 38°44' W 009°06'.

Length 115 m; draft 4.9 m.

Type: Ship. MMSI: 271000946.

Date/timePositionNaut miles runAvg speedWind from/ knotsBaromVisibWave heightAir tempDewpointWater temp
2018-Feb-22 02:58N 38°44' W 009°06'0 0.0
2018-Feb-22 02:28N 38°44' W 009°06'0 0.0
2018-Feb-22 02:00N 38°44' W 009°06'0 0.0
2018-Feb-22 01:28N 38°44' W 009°06'0 0.0
2018-Feb-22 00:58N 38°44' W 009°06'0 0.0
2018-Feb-22 00:28N 38°44' W 009°06'0 0.0
2018-Feb-21 23:58N 38°44' W 009°06'0 0.0
2018-Feb-21 23:28N 38°44' W 009°06'0 0.0
2018-Feb-21 22:58N 38°44' W 009°06'0 0.0
2018-Feb-21 22:28N 38°44' W 009°06'0 0.0
2018-Feb-21 21:55N 38°44' W 009°06'0 0.0
2018-Feb-21 21:28N 38°44' W 009°06'0 0.0
2018-Feb-21 20:58N 38°44' W 009°06'0 0.0
2018-Feb-21 20:28N 38°44' W 009°06'0 0.0
2018-Feb-21 19:58N 38°44' W 009°06'0 0.0
2018-Feb-21 19:28N 38°44' W 009°06'0 0.0
2018-Feb-21 18:58N 38°44' W 009°06'0 0.0
2018-Feb-21 18:28N 38°44' W 009°06'0 0.0
2018-Feb-21 17:55N 38°44' W 009°06'0 0.0
2018-Feb-21 17:25N 38°44' W 009°06'0 0.0
2018-Feb-21 16:55N 38°44' W 009°06'0 0.0
2018-Feb-21 16:28N 38°44' W 009°06'0 0.0
2018-Feb-21 15:58N 38°44' W 009°06'0 0.0
2018-Feb-21 15:28N 38°44' W 009°06'0 0.0
2018-Feb-21 14:58N 38°44' W 009°06'0 0.0
2018-Feb-21 14:28N 38°44' W 009°06'0 0.0
2018-Feb-21 13:58N 38°44' W 009°06'0 0.0
2018-Feb-21 13:28N 38°44' W 009°06'0 0.0
2018-Feb-21 12:58N 38°44' W 009°06'0 0.0
2018-Feb-21 12:28N 38°44' W 009°06'0 0.0
2018-Feb-21 11:58N 38°44' W 009°06'0 0.0
2018-Feb-21 11:28N 38°44' W 009°06'0 0.0
2018-Feb-21 10:58N 38°44' W 009°06'0 0.0
2018-Feb-21 10:28N 38°44' W 009°06'0 0.0
2018-Feb-21 09:58N 38°44' W 009°06'0 0.0
2018-Feb-21 09:28N 38°44' W 009°06'0 0.0
2018-Feb-21 08:58N 38°44' W 009°06'0 0.0
2018-Feb-21 08:25N 38°44' W 009°06'0 0.0
2018-Feb-21 07:58N 38°44' W 009°06'0 0.0
2018-Feb-21 07:28N 38°44' W 009°06'0 0.0
2018-Feb-21 06:58N 38°44' W 009°06'0 0.0
2018-Feb-21 06:28N 38°44' W 009°06'0 0.0
2018-Feb-21 05:58N 38°44' W 009°06'0 0.0
2018-Feb-21 05:28N 38°44' W 009°06'0 0.0
2018-Feb-21 04:58N 38°44' W 009°06'0 0.0
2018-Feb-21 04:25N 38°44' W 009°06'0 0.0
2018-Feb-21 03:58N 38°44' W 009°06'0 0.0
2018-Feb-21 03:28N 38°44' W 009°06'0 0.0
2018-Feb-21 02:58N 38°44' W 009°06'0 0.0
2018-Feb-21 02:28N 38°44' W 009°06'0 0.0
2018-Feb-21 01:58N 38°44' W 009°06'0 0.0
2018-Feb-21 01:28N 38°44' W 009°06'0 0.0
2018-Feb-21 00:55N 38°44' W 009°06'0 0.0
2018-Feb-21 00:28N 38°44' W 009°06'0 0.0
2018-Feb-20 23:58N 38°44' W 009°06'0 0.0
2018-Feb-20 23:28N 38°44' W 009°06'0 0.0
2018-Feb-20 23:01N 38°44' W 009°06'1 1.0
2018-Feb-20 22:29N 38°43' W 009°06'3 5.6
2018-Feb-20 22:01N 38°42' W 009°09'4 7.0
2018-Feb-20 21:25N 38°41' W 009°15'3 6.2
2018-Feb-20 21:01N 38°41' W 009°18'4 8.3
2018-Feb-20 20:30N 38°38' W 009°22'4 8.2
2018-Feb-20 20:00N 38°34' W 009°23'5 9.6
2018-Feb-20 19:31N 38°29' W 009°22'5 9.6
2018-Feb-20 19:01N 38°24' W 009°21'5 9.7
2018-Feb-20 18:31N 38°20' W 009°21'5 9.5
2018-Feb-20 18:01N 38°15' W 009°21'5 9.2
2018-Feb-20 17:30N 38°10' W 009°21'5 9.1
2018-Feb-20 17:01N 38°06' W 009°21'5 9.3
2018-Feb-20 16:31N 38°01' W 009°21'5 9.5
2018-Feb-20 16:00N 37°56' W 009°22'5 9.4
2018-Feb-20 15:31N 37°52' W 009°22'5 9.4
2018-Feb-20 15:00N 37°47' W 009°22'5 9.6
2018-Feb-20 14:30N 37°42' W 009°22'5 9.6
2018-Feb-20 14:01N 37°37' W 009°22'510.0
2018-Feb-20 13:31N 37°32' W 009°22'5 9.9
2018-Feb-20 13:01N 37°27' W 009°22'5 9.8
2018-Feb-20 12:30N 37°22' W 009°22'5 9.8
2018-Feb-20 11:58N 37°17' W 009°22'5 9.6
2018-Feb-20 11:27N 37°12' W 009°22'5 9.5
2018-Feb-20 10:59N 37°08' W 009°22'5 9.4
2018-Feb-20 10:30N 37°03' W 009°21'4 8.7
2018-Feb-20 09:59N 36°59' W 009°21'23 8.3
2018-Feb-20 07:11N 36°43' W 008°60'2 9.6
2018-Feb-20 06:58N 36°42' W 008°57'5 9.8
2018-Feb-20 06:30N 36°41' W 008°52'5 9.9
2018-Feb-20 06:00N 36°40' W 008°46'16310.4
2018-Feb-19 14:19N 35°59' W 005°30'3 9.4
2018-Feb-19 14:00N 36°00' W 005°27'4 9.0
2018-Feb-19 13:31N 36°01' W 005°21'4 8.5
2018-Feb-19 13:00N 36°03' W 005°16'21510.8
2018-Feb-18 17:06N 37°13' W 001°04'112.3
2018-Feb-18 17:01N 37°14' W 001°03'611.9
2018-Feb-18 16:29N 37°18' W 000°57'612.0
2018-Feb-18 16:01N 37°22' W 000°51'611.8
2018-Feb-18 15:30N 37°26' W 000°46'611.6
2018-Feb-18 15:00N 37°30' W 000°40'511.1
2018-Feb-18 14:31N 37°33' W 000°35'510.7
2018-Feb-18 14:01N 37°38' W 000°31'510.5
2018-Feb-18 13:31N 37°42' W 000°27'1910.4
2018-Feb-18 11:39N 37°58' W 000°14'210.9
2018-Feb-18 11:26N 38°00' W 000°12'  
2018-Feb-16 02:07N 39°14' E 002°18'211.0
2018-Feb-16 01:54N 39°13' E 002°20'511.0
2018-Feb-16 01:26N 39°11' E 002°27'511.2
2018-Feb-16 01:00N 39°09' E 002°32'510.8
2018-Feb-16 00:30N 39°07' E 002°38'810.7
2018-Feb-15 23:47N 39°04' E 002°48'310.9
2018-Feb-15 23:30N 39°04' E 002°52'510.7
2018-Feb-15 23:00N 39°03' E 002°59'1310.6
2018-Feb-15 21:45N 39°01' E 003°16'310.8
2018-Feb-15 21:27N 39°01' E 003°20'510.8
2018-Feb-15 21:00N 39°01' E 003°26'510.7
2018-Feb-15 20:30N 38°60' E 003°33'510.7
2018-Feb-15 20:00N 38°59' E 003°40'510.7
2018-Feb-15 19:30N 38°58' E 003°46'229 8.8
2018-Feb-14 17:26N 38°41' E 008°40'200 7.4
2018-Feb-13 14:24N 38°26' E 012°55'3 7.1
2018-Feb-13 13:55N 38°26' E 012°60'5 7.9
2018-Feb-13 13:14N 38°26' E 013°07'4 8.6
2018-Feb-13 12:47N 38°25' E 013°12'2 7.6
2018-Feb-13 12:28N 38°25' E 013°15'4 8.0
2018-Feb-13 12:00N 38°25' E 013°19'4 8.2
2018-Feb-13 11:30N 38°25' E 013°25'4 8.3
2018-Feb-13 11:00N 38°25' E 013°30'4 8.4
2018-Feb-13 10:30N 38°25' E 013°35'4 8.2
2018-Feb-13 10:00N 38°24' E 013°41'4 8.7
2018-Feb-13 09:30N 38°24' E 013°46'5 8.8
2018-Feb-13 08:58N 38°23' E 013°52'4 8.6
2018-Feb-13 08:30N 38°23' E 013°57'5 8.4
2018-Feb-13 07:57N 38°22' E 014°03'4 8.5
2018-Feb-13 07:30N 38°22' E 014°08'34 8.2
2018-Feb-13 03:21N 38°19' E 014°51'4 8.9
2018-Feb-13 02:50N 38°19' E 014°57'3 9.1
2018-Feb-13 02:27N 38°19' E 015°01'5 9.6
2018-Feb-13 01:59N 38°19' E 015°07'510.0
2018-Feb-13 01:26N 38°20' E 015°14'410.0
2018-Feb-13 01:00N 38°20' E 015°20'510.1
2018-Feb-13 00:30N 38°21' E 015°26'5 9.9
2018-Feb-12 23:59N 38°21' E 015°33'5 9.8
2018-Feb-12 23:30N 38°21' E 015°39'6 6.3
2018-Feb-12 22:29N 38°15' E 015°39'4 8.8
2018-Feb-12 22:00N 38°11' E 015°37'510.0
2018-Feb-12 21:28N 38°05' E 015°36'510.0
2018-Feb-12 21:00N 38°01' E 015°35'5 9.5
2018-Feb-12 20:30N 37°56' E 015°35'510.1
2018-Feb-12 20:00N 37°53' E 015°40'5 9.8
2018-Feb-12 19:30N 37°51' E 015°46'5 9.9
2018-Feb-12 19:00N 37°51' E 015°52'  
Track history (hours):
 
Tides and Currents Weather Stations Pressure Air Temp Water Temp Dewpoint Dewpoint Depression Visibility Wind Speed Wind Dir Waves Ship Positions

Adaline

Last reported at 2018-Feb-22 02:58 UTC. Time now 2018-Feb-22 03:11 UTC.
Position N 38°44' W 009°06'.

Length 115 m; draft 4.9 m.

Type: Ship. MMSI: 271000946.

Date/timePositionNaut miles runAvg speedWind from/ knotsBaromVisibWave heightAir tempDewpointWater temp
2018-Feb-22 02:58N 38°44' W 009°06'0 0.0
2018-Feb-22 02:28N 38°44' W 009°06'0 0.0
2018-Feb-22 02:00N 38°44' W 009°06'0 0.0
2018-Feb-22 01:28N 38°44' W 009°06'0 0.0
2018-Feb-22 00:58N 38°44' W 009°06'0 0.0
2018-Feb-22 00:28N 38°44' W 009°06'0 0.0
2018-Feb-21 23:58N 38°44' W 009°06'0 0.0
2018-Feb-21 23:28N 38°44' W 009°06'0 0.0
2018-Feb-21 22:58N 38°44' W 009°06'0 0.0
2018-Feb-21 22:28N 38°44' W 009°06'0 0.0
2018-Feb-21 21:55N 38°44' W 009°06'0 0.0
2018-Feb-21 21:28N 38°44' W 009°06'0 0.0
2018-Feb-21 20:58N 38°44' W 009°06'0 0.0
2018-Feb-21 20:28N 38°44' W 009°06'0 0.0
2018-Feb-21 19:58N 38°44' W 009°06'0 0.0
2018-Feb-21 19:28N 38°44' W 009°06'0 0.0
2018-Feb-21 18:58N 38°44' W 009°06'0 0.0
2018-Feb-21 18:28N 38°44' W 009°06'0 0.0
2018-Feb-21 17:55N 38°44' W 009°06'0 0.0
2018-Feb-21 17:25N 38°44' W 009°06'0 0.0
2018-Feb-21 16:55N 38°44' W 009°06'0 0.0
2018-Feb-21 16:28N 38°44' W 009°06'0 0.0
2018-Feb-21 15:58N 38°44' W 009°06'0 0.0
2018-Feb-21 15:28N 38°44' W 009°06'0 0.0
2018-Feb-21 14:58N 38°44' W 009°06'0 0.0
2018-Feb-21 14:28N 38°44' W 009°06'0 0.0
2018-Feb-21 13:58N 38°44' W 009°06'0 0.0
2018-Feb-21 13:28N 38°44' W 009°06'0 0.0
2018-Feb-21 12:58N 38°44' W 009°06'0 0.0
2018-Feb-21 12:28N 38°44' W 009°06'0 0.0
2018-Feb-21 11:58N 38°44' W 009°06'0 0.0
2018-Feb-21 11:28N 38°44' W 009°06'0 0.0
2018-Feb-21 10:58N 38°44' W 009°06'0 0.0
2018-Feb-21 10:28N 38°44' W 009°06'0 0.0
2018-Feb-21 09:58N 38°44' W 009°06'0 0.0
2018-Feb-21 09:28N 38°44' W 009°06'0 0.0
2018-Feb-21 08:58N 38°44' W 009°06'0 0.0
2018-Feb-21 08:25N 38°44' W 009°06'0 0.0
2018-Feb-21 07:58N 38°44' W 009°06'0 0.0
2018-Feb-21 07:28N 38°44' W 009°06'0 0.0
2018-Feb-21 06:58N 38°44' W 009°06'0 0.0
2018-Feb-21 06:28N 38°44' W 009°06'0 0.0
2018-Feb-21 05:58N 38°44' W 009°06'0 0.0
2018-Feb-21 05:28N 38°44' W 009°06'0 0.0
2018-Feb-21 04:58N 38°44' W 009°06'0 0.0
2018-Feb-21 04:25N 38°44' W 009°06'0 0.0
2018-Feb-21 03:58N 38°44' W 009°06'0 0.0
2018-Feb-21 03:28N 38°44' W 009°06'0 0.0
2018-Feb-21 02:58N 38°44' W 009°06'0 0.0
2018-Feb-21 02:28N 38°44' W 009°06'0 0.0
2018-Feb-21 01:58N 38°44' W 009°06'0 0.0
2018-Feb-21 01:28N 38°44' W 009°06'0 0.0
2018-Feb-21 00:55N 38°44' W 009°06'0 0.0
2018-Feb-21 00:28N 38°44' W 009°06'0 0.0
2018-Feb-20 23:58N 38°44' W 009°06'0 0.0
2018-Feb-20 23:28N 38°44' W 009°06'0 0.0
2018-Feb-20 23:01N 38°44' W 009°06'1 1.0
2018-Feb-20 22:29N 38°43' W 009°06'3 5.6
2018-Feb-20 22:01N 38°42' W 009°09'4 7.0
2018-Feb-20 21:25N 38°41' W 009°15'3 6.2
2018-Feb-20 21:01N 38°41' W 009°18'4 8.3
2018-Feb-20 20:30N 38°38' W 009°22'4 8.2
2018-Feb-20 20:00N 38°34' W 009°23'5 9.6
2018-Feb-20 19:31N 38°29' W 009°22'5 9.6
2018-Feb-20 19:01N 38°24' W 009°21'5 9.7
2018-Feb-20 18:31N 38°20' W 009°21'5 9.5
2018-Feb-20 18:01N 38°15' W 009°21'5 9.2
2018-Feb-20 17:30N 38°10' W 009°21'5 9.1
2018-Feb-20 17:01N 38°06' W 009°21'5 9.3
2018-Feb-20 16:31N 38°01' W 009°21'5 9.5
2018-Feb-20 16:00N 37°56' W 009°22'5 9.4
2018-Feb-20 15:31N 37°52' W 009°22'5 9.4
2018-Feb-20 15:00N 37°47' W 009°22'5 9.6
2018-Feb-20 14:30N 37°42' W 009°22'5 9.6
2018-Feb-20 14:01N 37°37' W 009°22'510.0
2018-Feb-20 13:31N 37°32' W 009°22'5 9.9
2018-Feb-20 13:01N 37°27' W 009°22'5 9.8
2018-Feb-20 12:30N 37°22' W 009°22'5 9.8
2018-Feb-20 11:58N 37°17' W 009°22'5 9.6
2018-Feb-20 11:27N 37°12' W 009°22'5 9.5
2018-Feb-20 10:59N 37°08' W 009°22'5 9.4
2018-Feb-20 10:30N 37°03' W 009°21'4 8.7
2018-Feb-20 09:59N 36°59' W 009°21'23 8.3
2018-Feb-20 07:11N 36°43' W 008°60'2 9.6
2018-Feb-20 06:58N 36°42' W 008°57'5 9.8
2018-Feb-20 06:30N 36°41' W 008°52'5 9.9
2018-Feb-20 06:00N 36°40' W 008°46'16310.4
2018-Feb-19 14:19N 35°59' W 005°30'3 9.4
2018-Feb-19 14:00N 36°00' W 005°27'4 9.0
2018-Feb-19 13:31N 36°01' W 005°21'4 8.5
2018-Feb-19 13:00N 36°03' W 005°16'21510.8
2018-Feb-18 17:06N 37°13' W 001°04'112.3
2018-Feb-18 17:01N 37°14' W 001°03'611.9
2018-Feb-18 16:29N 37°18' W 000°57'612.0
2018-Feb-18 16:01N 37°22' W 000°51'611.8
2018-Feb-18 15:30N 37°26' W 000°46'611.6
2018-Feb-18 15:00N 37°30' W 000°40'511.1
2018-Feb-18 14:31N 37°33' W 000°35'510.7
2018-Feb-18 14:01N 37°38' W 000°31'510.5
2018-Feb-18 13:31N 37°42' W 000°27'1910.4
2018-Feb-18 11:39N 37°58' W 000°14'210.9
2018-Feb-18 11:26N 38°00' W 000°12'  
2018-Feb-16 02:07N 39°14' E 002°18'211.0
2018-Feb-16 01:54N 39°13' E 002°20'511.0
2018-Feb-16 01:26N 39°11' E 002°27'511.2
2018-Feb-16 01:00N 39°09' E 002°32'510.8
2018-Feb-16 00:30N 39°07' E 002°38'810.7
2018-Feb-15 23:47N 39°04' E 002°48'310.9
2018-Feb-15 23:30N 39°04' E 002°52'510.7
2018-Feb-15 23:00N 39°03' E 002°59'1310.6
2018-Feb-15 21:45N 39°01' E 003°16'310.8
2018-Feb-15 21:27N 39°01' E 003°20'510.8
2018-Feb-15 21:00N 39°01' E 003°26'510.7
2018-Feb-15 20:30N 38°60' E 003°33'510.7
2018-Feb-15 20:00N 38°59' E 003°40'510.7
2018-Feb-15 19:30N 38°58' E 003°46'229 8.8
2018-Feb-14 17:26N 38°41' E 008°40'200 7.4
2018-Feb-13 14:24N 38°26' E 012°55'3 7.1
2018-Feb-13 13:55N 38°26' E 012°60'5 7.9
2018-Feb-13 13:14N 38°26' E 013°07'4 8.6
2018-Feb-13 12:47N 38°25' E 013°12'2 7.6
2018-Feb-13 12:28N 38°25' E 013°15'4 8.0
2018-Feb-13 12:00N 38°25' E 013°19'4 8.2
2018-Feb-13 11:30N 38°25' E 013°25'4 8.3
2018-Feb-13 11:00N 38°25' E 013°30'4 8.4
2018-Feb-13 10:30N 38°25' E 013°35'4 8.2
2018-Feb-13 10:00N 38°24' E 013°41'4 8.7
2018-Feb-13 09:30N 38°24' E 013°46'5 8.8
2018-Feb-13 08:58N 38°23' E 013°52'4 8.6
2018-Feb-13 08:30N 38°23' E 013°57'5 8.4
2018-Feb-13 07:57N 38°22' E 014°03'4 8.5
2018-Feb-13 07:30N 38°22' E 014°08'34 8.2
2018-Feb-13 03:21N 38°19' E 014°51'4 8.9
2018-Feb-13 02:50N 38°19' E 014°57'3 9.1
2018-Feb-13 02:27N 38°19' E 015°01'5 9.6
2018-Feb-13 01:59N 38°19' E 015°07'510.0
2018-Feb-13 01:26N 38°20' E 015°14'410.0
2018-Feb-13 01:00N 38°20' E 015°20'510.1
2018-Feb-13 00:30N 38°21' E 015°26'5 9.9
2018-Feb-12 23:59N 38°21' E 015°33'5 9.8
2018-Feb-12 23:30N 38°21' E 015°39'6 6.3
2018-Feb-12 22:29N 38°15' E 015°39'4 8.8
2018-Feb-12 22:00N 38°11' E 015°37'510.0
2018-Feb-12 21:28N 38°05' E 015°36'510.0
2018-Feb-12 21:00N 38°01' E 015°35'5 9.5
2018-Feb-12 20:30N 37°56' E 015°35'510.1
2018-Feb-12 20:00N 37°53' E 015°40'5 9.8
2018-Feb-12 19:30N 37°51' E 015°46'5 9.9
2018-Feb-12 19:00N 37°51' E 015°52'  

Dump ship's entire track history